Terminal Aerodrome Forecast
Issued by NWS Cleveland, OH

Home | Current Version | Previous Version | Graphics & Text | Print | Product List | Glossary On
Versions: 1 2 3 4 5 6 7 8 9 10 11 12 13 14 15
000
FTUS41 KCLE 302043 AAA
TAFYNG
TAF AMD
KYNG 302043Z 3021/0118 22010KT P6SM -SHRA SCT023 OVC050
      TEMPO 3021/3022 2SM TSRA OVC015CB
     FM010300 22006KT P6SM -RA VCTS SCT100CB OVC250
     FM010700 22006KT 4SM BR VCSH OVC007
     FM011500 25009KT 6SM BR OVC015=

USA.gov is the U.S. government's official web portal to all federal, state and local government web resources and services.